createdAt,value
2019-02-02T00:00:59.386Z,17.47
2019-02-02T00:03:30.765Z,17.90
2019-02-02T00:06:01.235Z,16.77
2019-02-02T00:08:31.920Z,16.50
2019-02-02T00:11:05.583Z,16.53
2019-02-02T00:13:36.096Z,15.70
2019-02-02T00:16:06.828Z,17.07
2019-02-02T00:18:39.134Z,16.70
2019-02-02T00:21:10.864Z,16.83
2019-02-02T00:23:42.470Z,17.63
2019-02-02T00:26:12.965Z,16.60
2019-02-02T00:28:43.572Z,16.77
2019-02-02T00:31:13.982Z,15.63
2019-02-02T00:33:48.155Z,15.80
2019-02-02T00:36:21.739Z,16.03
2019-02-02T00:38:52.576Z,16.90
2019-02-02T00:41:24.190Z,17.70
2019-02-02T00:43:54.667Z,16.90
2019-02-02T00:46:24.995Z,16.80
2019-02-02T00:48:57.782Z,16.00
2019-02-02T00:51:28.203Z,18.20
2019-02-02T00:54:00.244Z,19.14
2019-02-02T00:56:30.545Z,15.37
2019-02-02T00:59:01.838Z,15.73
2019-02-02T01:01:32.258Z,16.57
2019-02-02T01:04:03.094Z,17.53
2019-02-02T01:06:33.543Z,18.87
2019-02-02T01:09:07.127Z,19.30
2019-02-02T01:11:37.426Z,18.13
2019-02-02T01:14:08.235Z,19.90
2019-02-02T01:16:40.302Z,19.37
2019-02-02T01:19:10.827Z,19.60
2019-02-02T01:21:41.290Z,20.00
2019-02-02T01:24:13.374Z,19.67
2019-02-02T01:26:45.834Z,18.50
2019-02-02T01:29:17.665Z,19.17
2019-02-02T01:31:48.327Z,18.60
2019-02-02T01:34:21.578Z,18.03
2019-02-02T01:36:53.749Z,18.07
2019-02-02T01:39:24.148Z,18.27
2019-02-02T01:41:57.069Z,18.80
2019-02-02T01:44:29.889Z,19.57
2019-02-02T01:47:00.306Z,18.47
2019-02-02T01:49:30.902Z,19.20
2019-02-02T01:52:01.485Z,17.42
2019-02-02T01:54:31.959Z,18.60
2019-02-02T01:57:02.710Z,19.27
2019-02-02T01:59:32.984Z,18.37
2019-02-02T02:02:04.229Z,16.90
2019-02-02T02:04:34.694Z,17.67
2019-02-02T02:07:08.579Z,17.53
2019-02-02T02:09:42.667Z,17.10
2019-02-02T02:12:13.216Z,18.82
2019-02-02T02:14:46.130Z,18.37
2019-02-02T02:17:17.072Z,19.55
2019-02-02T02:19:47.579Z,18.67
2019-02-02T02:22:17.844Z,16.27
2019-02-02T02:24:48.156Z,16.97
2019-02-02T02:27:19.604Z,16.95
2019-02-02T02:29:50.017Z,17.40
2019-02-02T02:32:20.690Z,18.57
2019-02-02T02:34:51.278Z,18.30
2019-02-02T02:37:21.597Z,18.17
2019-02-02T02:39:52.559Z,18.70
2019-02-02T02:42:26.613Z,17.70
2019-02-02T02:44:59.211Z,17.90
2019-02-02T02:47:35.324Z,16.60
2019-02-02T02:50:07.618Z,18.32
2019-02-02T02:52:38.152Z,16.90
2019-02-02T02:55:10.395Z,18.33
2019-02-02T02:57:40.666Z,18.30
2019-02-02T03:00:17.849Z,17.32
2019-02-02T03:02:48.354Z,19.20
2019-02-02T03:05:19.754Z,17.17
2019-02-02T03:07:52.948Z,18.50
2019-02-02T03:10:25.321Z,19.17
2019-02-02T03:12:57.618Z,16.97
2019-02-02T03:15:28.045Z,18.57
2019-02-02T03:17:58.392Z,17.60
2019-02-02T03:20:28.819Z,16.80
2019-02-02T03:22:59.158Z,19.33
2019-02-02T03:25:29.837Z,18.12
2019-02-02T03:28:00.131Z,19.03
2019-02-02T03:30:30.431Z,20.05
2019-02-02T03:33:00.750Z,18.43
2019-02-02T03:35:33.700Z,19.83
2019-02-02T03:38:09.500Z,19.67
2019-02-02T03:40:39.811Z,19.43
2019-02-02T03:43:14.635Z,19.60
2019-02-02T03:45:44.903Z,19.42
2019-02-02T03:48:15.282Z,19.10
2019-02-02T03:50:46.097Z,19.23
2019-02-02T03:53:18.366Z,20.20
2019-02-02T03:55:52.115Z,20.37
2019-02-02T03:58:25.641Z,20.57
2019-02-02T04:00:56.335Z,18.65
2019-02-02T04:03:27.032Z,22.50
2019-02-02T04:05:57.714Z,21.17
2019-02-02T04:08:28.196Z,21.07
2019-02-02T04:10:59.944Z,21.40
2019-02-02T04:13:30.198Z,21.57
2019-02-02T04:16:01.541Z,22.48
2019-02-02T04:18:31.870Z,22.67
2019-02-02T04:21:02.320Z,23.67
2019-02-02T04:23:32.653Z,23.10
2019-02-02T04:26:03.159Z,22.00
2019-02-02T04:28:34.563Z,23.70
2019-02-02T04:31:10.926Z,25.10
2019-02-02T04:33:42.344Z,25.50
2019-02-02T04:36:17.582Z,24.85
2019-02-02T04:38:47.915Z,25.73
2019-02-02T04:41:20.341Z,26.55
2019-02-02T04:43:50.978Z,27.15
2019-02-02T04:46:23.731Z,26.50
2019-02-02T04:48:54.249Z,27.60
2019-02-02T04:51:24.742Z,27.87
2019-02-02T04:53:57.992Z,27.13
2019-02-02T04:56:29.802Z,25.97
2019-02-02T04:59:00.094Z,27.67
2019-02-02T05:01:30.475Z,27.03
2019-02-02T05:04:01.046Z,28.57
2019-02-02T05:06:31.448Z,29.67
2019-02-02T05:09:02.115Z,29.42
2019-02-02T05:11:33.471Z,29.73
2019-02-02T05:14:03.739Z,29.10
2019-02-02T05:16:35.350Z,29.33
2019-02-02T05:19:05.671Z,29.10
2019-02-02T05:21:36.094Z,27.80
2019-02-02T05:24:06.611Z,28.60
2019-02-02T05:26:48.727Z,29.30
2019-02-02T05:29:28.196Z,29.13
2019-02-02T05:31:58.437Z,29.90
2019-02-02T05:34:29.171Z,30.15
2019-02-02T05:36:59.513Z,31.03
2019-02-02T05:39:30.097Z,32.07
2019-02-02T05:42:00.560Z,30.13
2019-02-02T05:44:31.161Z,31.60
2019-02-02T05:47:02.846Z,32.63
2019-02-02T05:49:34.234Z,32.10
2019-02-02T05:52:04.736Z,32.43
2019-02-02T05:54:35.193Z,34.50
2019-02-02T05:57:05.486Z,36.30
2019-02-02T05:59:36.658Z,34.48
2019-02-02T06:02:08.291Z,34.43
2019-02-02T06:05:18.990Z,35.03
2019-02-02T06:07:33.537Z,35.03
2019-02-02T06:09:58.423Z,35.53
2019-02-02T06:12:32.892Z,34.90
2019-02-02T06:15:04.843Z,35.50
2019-02-02T06:17:35.348Z,35.03
2019-02-02T06:20:07.331Z,35.43
2019-02-02T06:22:37.734Z,34.23
2019-02-02T06:25:09.859Z,36.40
2019-02-02T06:27:40.195Z,35.07
2019-02-02T06:30:13.928Z,36.27
2019-02-02T06:32:44.352Z,35.67
2019-02-02T06:35:15.629Z,30.43
2019-02-02T06:37:46.487Z,33.40
2019-02-02T06:40:16.886Z,33.33
2019-02-02T06:42:50.029Z,35.57
2019-02-02T06:45:31.277Z,34.33
2019-02-02T06:48:01.578Z,34.40
2019-02-02T06:50:32.372Z,32.17
2019-02-02T06:53:03.306Z,30.73
2019-02-02T06:55:33.982Z,30.17
2019-02-02T06:58:04.907Z,35.63
2019-02-02T07:00:35.614Z,36.00
2019-02-02T07:03:06.014Z,38.93
2019-02-02T07:05:36.614Z,37.17
2019-02-02T07:08:07.007Z,39.43
2019-02-02T07:10:44.062Z,35.65
2019-02-02T07:13:19.007Z,29.73
2019-02-02T07:15:50.409Z,29.03
2019-02-02T07:18:20.871Z,37.63
2019-02-02T07:20:52.011Z,40.45
2019-02-02T07:23:22.338Z,43.47
2019-02-02T07:25:53.159Z,40.13
2019-02-02T07:28:23.491Z,39.07
2019-02-02T07:30:55.716Z,38.08
2019-02-02T07:33:26.245Z,37.47
2019-02-02T07:36:03.710Z,40.85
2019-02-02T07:38:40.097Z,39.33
2019-02-02T07:41:10.367Z,40.13
2019-02-02T07:43:40.674Z,37.13
2019-02-02T07:46:15.076Z,41.20
2019-02-02T07:48:44.110Z,41.27
2019-02-02T07:51:14.686Z,34.67
2019-02-02T07:53:44.991Z,41.57
2019-02-02T07:56:15.706Z,40.70
2019-02-02T07:58:46.548Z,40.67
2019-02-02T08:01:16.973Z,43.60
2019-02-02T08:03:50.632Z,41.27
2019-02-02T08:06:27.095Z,44.13
2019-02-02T08:09:05.912Z,41.37
2019-02-02T08:11:38.248Z,39.35
2019-02-02T08:14:11.353Z,40.43
2019-02-02T08:16:42.917Z,41.08
2019-02-02T08:19:13.331Z,42.60
2019-02-02T08:21:45.627Z,40.67
2019-02-02T08:24:20.814Z,41.83
2019-02-02T08:26:51.476Z,42.10
2019-02-02T08:29:22.106Z,44.30
2019-02-02T08:31:53.632Z,41.24
2019-02-02T08:34:23.972Z,44.83
2019-02-02T08:37:22.563Z,43.30
2019-02-02T08:39:44.012Z,42.27
2019-02-02T08:42:14.472Z,40.20
2019-02-02T08:44:44.866Z,43.53
2019-02-02T08:47:15.288Z,43.90
2019-02-02T08:49:45.758Z,44.47
2019-02-02T08:52:16.450Z,44.35
2019-02-02T08:54:48.207Z,41.88
2019-02-02T08:57:18.891Z,42.37
2019-02-02T08:59:49.246Z,48.43
2019-02-02T09:02:20.082Z,45.40
2019-02-02T09:04:50.842Z,49.40
2019-02-02T09:07:24.431Z,45.30
2019-02-02T09:09:58.250Z,46.30
2019-02-02T09:12:30.604Z,47.10
2019-02-02T09:15:08.074Z,49.23
2019-02-02T09:17:52.267Z,44.23
2019-02-02T09:20:26.343Z,45.57
2019-02-02T09:23:09.818Z,46.18
2019-02-02T09:25:38.890Z,43.57
2019-02-02T09:28:12.091Z,48.70
2019-02-02T09:30:46.887Z,46.57
2019-02-02T09:33:20.157Z,42.47
2019-02-02T09:36:01.330Z,42.67
2019-02-02T09:38:35.210Z,37.20
2019-02-02T09:41:07.035Z,41.57
2019-02-02T09:43:42.364Z,50.63
2019-02-02T09:46:13.649Z,47.37
2019-02-02T09:48:46.778Z,43.37
2019-02-02T09:51:17.527Z,51.70
2019-02-02T09:53:53.357Z,51.17
2019-02-02T09:56:24.570Z,46.30
2019-02-02T09:58:55.151Z,44.53
2019-02-02T10:01:27.870Z,52.50
2019-02-02T10:03:57.849Z,49.40
2019-02-02T10:06:31.162Z,52.78
2019-02-02T10:09:01.498Z,50.57
2019-02-02T10:11:34.276Z,49.13
2019-02-02T10:14:07.059Z,47.97
2019-02-02T10:16:42.156Z,43.20
2019-02-02T10:19:15.746Z,44.67
2019-02-02T10:21:46.137Z,45.13
2019-02-02T10:24:28.769Z,46.37
2019-02-02T10:27:18.600Z,47.50
2019-02-02T10:29:56.391Z,45.10
2019-02-02T10:32:29.825Z,44.80
2019-02-02T10:35:05.966Z,45.17
2019-02-02T10:37:36.525Z,46.80
2019-02-02T10:40:10.197Z,45.90
2019-02-02T10:42:40.881Z,45.17
2019-02-02T10:45:21.390Z,44.93
2019-02-02T10:47:50.452Z,46.40
2019-02-02T10:50:21.353Z,46.53
2019-02-02T10:52:54.092Z,40.27
2019-02-02T10:55:24.822Z,42.67
2019-02-02T10:57:55.479Z,42.97
2019-02-02T11:00:30.205Z,41.50
2019-02-02T11:03:00.724Z,41.30
2019-02-02T11:05:32.873Z,43.30
2019-02-02T11:08:08.783Z,42.83
2019-02-02T11:10:42.021Z,44.33
2019-02-02T11:13:16.343Z,43.23
2019-02-02T11:19:12.557Z,44.03
2019-02-02T11:21:51.503Z,42.55
2019-02-02T11:24:34.814Z,43.63
2019-02-02T11:27:15.742Z,43.27
2019-02-02T11:29:47.537Z,42.47
2019-02-02T11:32:25.190Z,42.37
2019-02-02T11:34:58.361Z,41.37
2019-02-02T11:37:34.725Z,39.50
2019-02-02T11:40:06.362Z,39.80
2019-02-02T11:42:36.991Z,39.57
2019-02-02T11:45:11.369Z,38.53
2019-02-02T11:47:41.907Z,39.23
2019-02-02T11:50:15.576Z,39.00
2019-02-02T11:52:46.051Z,39.37
2019-02-02T11:55:17.520Z,38.48
2019-02-02T11:57:50.617Z,37.43
2019-02-02T12:00:29.087Z,37.67
2019-02-02T12:03:00.558Z,38.55
2019-02-02T12:05:31.567Z,39.18
2019-02-02T12:08:03.717Z,38.83
2019-02-02T12:10:34.637Z,40.20
2019-02-02T12:13:07.593Z,40.03
2019-02-02T12:15:40.462Z,40.83
2019-02-02T12:18:11.969Z,40.40
2019-02-02T12:20:43.146Z,41.45
2019-02-02T12:23:17.452Z,41.93
2019-02-02T12:25:56.597Z,43.27
2019-02-02T12:28:28.334Z,43.07
2019-02-02T12:30:58.665Z,41.43
2019-02-02T12:33:29.323Z,43.03
2019-02-02T12:36:00.759Z,43.57
2019-02-02T12:38:33.592Z,43.60
2019-02-02T12:41:04.097Z,42.63
2019-02-02T12:43:35.691Z,43.23
2019-02-02T12:46:07.542Z,42.70
2019-02-02T12:48:42.242Z,43.83
2019-02-02T12:51:16.770Z,44.43
2019-02-02T12:53:55.905Z,44.83
2019-02-02T12:56:32.379Z,46.43
2019-02-02T12:59:12.590Z,46.67
2019-02-02T13:01:48.025Z,49.77
2019-02-02T13:04:23.958Z,47.93
2019-02-02T13:06:56.120Z,48.45
2019-02-02T13:09:48.652Z,49.13
2019-02-02T13:12:34.805Z,50.63
2019-02-02T13:15:05.703Z,48.57
2019-02-02T13:17:42.869Z,49.67
2019-02-02T13:20:21.633Z,51.08
2019-02-02T13:22:56.138Z,50.87
2019-02-02T13:25:36.895Z,53.08
2019-02-02T13:28:12.743Z,49.63
2019-02-02T13:31:02.027Z,50.23
2019-02-02T13:33:34.455Z,50.10
2019-02-02T13:36:10.707Z,48.70
2019-02-02T13:38:58.879Z,49.23
2019-02-02T13:41:34.356Z,47.07
2019-02-02T13:44:08.565Z,47.90
2019-02-02T13:46:46.550Z,47.80
2019-02-02T13:49:34.942Z,47.20
2019-02-02T13:52:09.490Z,46.73
2019-02-02T13:54:52.840Z,46.57
2019-02-02T13:57:31.379Z,45.70
2019-02-02T14:00:12.093Z,49.87
2019-02-02T14:02:44.581Z,49.40
2019-02-02T14:05:19.870Z,47.80
2019-02-02T14:08:00.085Z,48.43
2019-02-02T14:10:32.887Z,46.30
2019-02-02T14:13:20.778Z,48.50
2019-02-02T14:15:51.372Z,47.20
2019-02-02T14:18:30.848Z,47.53
2019-02-02T14:21:10.085Z,50.13
2019-02-02T14:23:42.695Z,48.80
2019-02-02T14:26:14.818Z,49.40
2019-02-02T14:28:50.058Z,47.83
2019-02-02T14:31:40.454Z,47.05
2019-02-02T14:34:06.824Z,47.03
2019-02-02T14:36:41.618Z,49.40
2019-02-02T14:39:32.109Z,48.00
2019-02-02T14:42:06.070Z,49.13
2019-02-02T14:44:55.489Z,46.58
2019-02-02T14:47:28.343Z,46.40
2019-02-02T14:50:18.941Z,48.53
2019-02-02T14:52:53.728Z,49.90
2019-02-02T14:55:28.881Z,50.55
2019-02-02T14:58:02.439Z,50.23
2019-02-02T15:00:38.799Z,47.95
2019-02-02T15:03:10.518Z,50.83
2019-02-02T15:05:53.074Z,49.50
2019-02-02T15:08:27.254Z,50.73
2019-02-02T15:11:01.176Z,48.73
2019-02-02T15:13:50.586Z,50.17
2019-02-02T15:16:29.792Z,49.30
2019-02-02T15:19:25.075Z,49.13
2019-02-02T15:21:54.476Z,50.57
2019-02-02T15:24:27.930Z,52.40
2019-02-02T15:27:29.795Z,49.80
2019-02-02T15:29:49.816Z,51.33
2019-02-02T15:32:38.043Z,52.05
2019-02-02T15:35:10.618Z,50.93
2019-02-02T15:37:47.976Z,53.63
2019-02-02T15:40:25.155Z,54.33
2019-02-02T15:42:56.618Z,51.00
2019-02-02T15:45:36.570Z,51.93
2019-02-02T15:48:24.849Z,54.83
2019-02-02T15:51:08.733Z,54.00
2019-02-02T15:53:50.845Z,54.40
2019-02-02T15:56:50.571Z,55.50
2019-02-02T15:59:03.165Z,56.20
2019-02-02T16:01:35.164Z,57.43
2019-02-02T16:04:05.632Z,57.93
2019-02-02T16:06:35.975Z,55.95
2019-02-02T16:09:09.264Z,56.57
2019-02-02T16:11:40.976Z,58.83
2019-02-02T16:14:21.566Z,55.67
2019-02-02T16:16:59.407Z,57.23
2019-02-02T16:19:45.200Z,54.60
2019-02-02T16:22:28.691Z,57.13
2019-02-02T16:25:11.964Z,55.55
2019-02-02T16:27:34.519Z,57.23
2019-02-02T16:30:08.636Z,57.73
2019-02-02T16:32:41.884Z,60.30
2019-02-02T16:35:12.610Z,60.10
2019-02-02T16:37:44.986Z,57.93
2019-02-02T16:40:18.334Z,58.93
2019-02-02T16:42:59.322Z,62.47
2019-02-02T16:45:52.891Z,62.07
2019-02-02T16:48:30.419Z,58.82
2019-02-02T16:51:14.828Z,63.85
2019-02-02T16:53:58.468Z,62.80
2019-02-02T16:56:46.666Z,60.40
2019-02-02T16:59:25.224Z,61.10
2019-02-02T17:02:05.957Z,66.90
2019-02-02T17:04:38.228Z,62.67
2019-02-02T17:07:14.971Z,66.85
2019-02-02T17:09:56.233Z,62.30
2019-02-02T17:13:24.563Z,55.83
2019-02-02T17:15:06.133Z,63.47
2019-02-02T17:17:38.399Z,60.75
2019-02-02T17:20:15.002Z,64.80
2019-02-02T17:22:45.694Z,65.40
2019-02-02T17:25:17.890Z,64.90
2019-02-02T17:27:56.897Z,66.04
2019-02-02T17:30:32.647Z,72.13
2019-02-02T17:33:26.667Z,70.07
2019-02-02T17:36:01.800Z,66.97
2019-02-02T17:38:41.027Z,71.07
2019-02-02T17:41:12.668Z,71.17
2019-02-02T17:43:45.382Z,67.07
2019-02-02T17:46:15.866Z,71.50
2019-02-02T17:48:46.634Z,68.53
2019-02-02T17:51:17.382Z,67.43
2019-02-02T17:53:47.747Z,71.87
2019-02-02T17:56:20.294Z,67.23
2019-02-02T17:59:00.438Z,63.60
2019-02-02T18:01:40.877Z,62.80
2019-02-02T18:04:39.172Z,65.88
2019-02-02T18:07:19.815Z,65.27
2019-02-02T18:09:57.300Z,64.60
2019-02-02T18:12:37.982Z,58.02
2019-02-02T18:15:18.301Z,59.53
2019-02-02T18:17:52.778Z,62.07
2019-02-02T18:20:44.203Z,65.07
2019-02-02T18:23:10.992Z,65.03
2019-02-02T18:25:42.990Z,67.30
2019-02-02T18:28:13.537Z,65.93
2019-02-02T18:30:45.313Z,60.63
2019-02-02T18:33:17.006Z,65.23
2019-02-02T18:35:59.306Z,64.40
2019-02-02T18:38:37.237Z,60.85
2019-02-02T18:41:15.928Z,56.70
2019-02-02T18:43:52.189Z,60.05
2019-02-02T18:46:28.368Z,62.37
2019-02-02T18:49:27.869Z,58.92
2019-02-02T18:52:22.345Z,64.13
2019-02-02T18:54:55.923Z,59.18
2019-02-02T18:57:37.952Z,59.27
2019-02-02T19:00:14.317Z,56.08
2019-02-02T19:02:49.261Z,59.03
2019-02-02T19:05:29.256Z,57.23
2019-02-02T19:08:03.672Z,55.60
2019-02-02T19:10:48.857Z,57.77
2019-02-02T19:14:09.738Z,53.53
2019-02-02T19:16:31.193Z,53.83
2019-02-02T19:19:09.458Z,57.17
2019-02-02T19:21:57.089Z,54.13
2019-02-02T19:24:37.414Z,57.37
2019-02-02T19:27:16.856Z,54.13
2019-02-02T19:30:01.580Z,54.67
2019-02-02T19:32:35.659Z,53.40
2019-02-02T19:35:16.205Z,53.37
2019-02-02T19:37:42.925Z,53.00
2019-02-02T19:40:14.208Z,53.30
2019-02-02T19:42:44.893Z,53.20
2019-02-02T19:45:27.665Z,50.47
2019-02-02T19:48:07.635Z,49.37
2019-02-02T19:50:57.008Z,50.85
2019-02-02T19:53:42.133Z,48.20
2019-02-02T19:56:19.454Z,46.93
2019-02-02T19:58:51.755Z,48.40
2019-02-02T20:01:22.324Z,46.53
2019-02-02T20:03:52.988Z,48.17
2019-02-02T20:06:27.777Z,46.03
2019-02-02T20:09:03.623Z,47.33
2019-02-02T20:11:35.702Z,45.20
2019-02-02T20:14:06.568Z,46.00
2019-02-02T20:16:37.606Z,47.60
2019-02-02T20:19:11.143Z,46.23
2019-02-02T20:21:57.354Z,47.17
2019-02-02T20:24:13.977Z,46.48
2019-02-02T20:26:44.339Z,45.93
2019-02-02T20:29:15.162Z,47.62
2019-02-02T20:31:51.053Z,46.33
2019-02-02T20:34:39.441Z,46.95
2019-02-02T20:37:00.638Z,47.17
2019-02-02T20:39:37.003Z,48.63
2019-02-02T20:42:08.612Z,49.97
2019-02-02T20:44:38.965Z,45.70
2019-02-02T20:47:09.370Z,45.37
2019-02-02T20:49:50.898Z,44.90
2019-02-02T20:52:23.325Z,46.00
2019-02-02T20:55:03.677Z,48.67
2019-02-02T20:57:40.868Z,44.97
2019-02-02T21:00:14.756Z,49.27
2019-02-02T21:02:47.247Z,48.10
2019-02-02T21:05:31.829Z,44.80
2019-02-02T21:08:08.418Z,45.43
2019-02-02T21:10:47.499Z,45.60
2019-02-02T21:13:19.933Z,48.03
2019-02-02T21:15:50.584Z,46.67
2019-02-02T21:18:21.510Z,46.23
2019-02-02T21:21:06.493Z,46.40
2019-02-02T21:23:41.866Z,44.53
2019-02-02T21:26:11.712Z,45.25
2019-02-02T21:28:51.091Z,45.50
2019-02-02T21:31:26.856Z,40.87
2019-02-02T21:34:00.272Z,46.35
2019-02-02T21:36:31.141Z,42.83
2019-02-02T21:39:01.746Z,46.27
2019-02-02T21:41:35.429Z,44.23
2019-02-02T21:44:14.172Z,48.58
2019-02-02T21:47:01.531Z,44.20
2019-02-02T21:49:32.476Z,44.20
2019-02-02T21:52:06.026Z,48.80
2019-02-02T21:54:38.294Z,46.07
2019-02-02T21:57:08.663Z,48.97
2019-02-02T21:59:40.330Z,47.32
2019-02-02T22:02:17.967Z,49.13
2019-02-02T22:04:52.740Z,49.45
2019-02-02T22:07:27.123Z,48.53
2019-02-02T22:09:57.391Z,49.73
2019-02-02T22:12:27.759Z,49.50
2019-02-02T22:15:02.754Z,49.43
2019-02-02T22:17:38.353Z,49.77
2019-02-02T22:20:11.558Z,50.17
2019-02-02T22:22:47.857Z,50.70
2019-02-02T22:25:21.690Z,53.80
2019-02-02T22:28:20.834Z,49.40
2019-02-02T22:30:52.530Z,49.90
2019-02-02T22:33:09.529Z,51.50
2019-02-02T22:35:40.294Z,52.70
2019-02-02T22:38:10.977Z,50.17
2019-02-02T22:40:47.655Z,50.20
2019-02-02T22:43:35.564Z,48.73
2019-02-02T22:46:09.806Z,51.40
2019-02-02T22:48:51.076Z,49.57
2019-02-02T22:51:28.968Z,52.85
2019-02-02T22:54:24.616Z,49.97
2019-02-02T22:56:59.119Z,49.67
2019-02-02T22:59:40.135Z,50.70
2019-02-02T23:02:15.154Z,49.47
2019-02-02T23:05:06.724Z,52.00
2019-02-02T23:08:11.373Z,48.94
2019-02-02T23:11:25.762Z,48.38
2019-02-02T23:14:52.684Z,47.70
2019-02-02T23:17:22.996Z,47.27
2019-02-02T23:20:03.467Z,48.40
2019-02-02T23:22:35.472Z,45.63
2019-02-02T23:25:12.791Z,46.33
2019-02-02T23:27:49.510Z,46.70
2019-02-02T23:30:28.008Z,44.67
2019-02-02T23:32:53.612Z,47.78
2019-02-02T23:35:24.250Z,45.10
2019-02-02T23:37:55.506Z,48.15
2019-02-02T23:40:27.506Z,45.77
2019-02-02T23:43:01.938Z,46.27
2019-02-02T23:45:40.725Z,48.93
2019-02-02T23:48:10.307Z,48.72
2019-02-02T23:50:56.619Z,47.20
2019-02-02T23:53:13.230Z,49.93
2019-02-02T23:55:43.804Z,46.37
2019-02-02T23:58:17.947Z,47.68
